createdAt,value
2023-04-29T00:02:02.628Z,67.70
2023-04-29T00:04:29.720Z,67.60
2023-04-29T00:06:56.570Z,67.50
2023-04-29T00:35:11.169Z,67.40
2023-04-29T00:37:38.216Z,67.40
2023-04-29T00:40:06.597Z,67.50
2023-04-29T00:42:33.875Z,67.60
2023-04-29T00:45:00.538Z,67.50
2023-04-29T01:10:44.776Z,67.50
2023-04-29T01:13:50.408Z,67.70
2023-04-29T01:16:37.416Z,67.40
2023-04-29T01:19:23.053Z,67.50
2023-04-29T01:29:59.826Z,67.40
2023-04-29T02:17:40.240Z,67.50
2023-04-29T02:20:10.101Z,67.60
2023-04-29T02:22:36.778Z,67.70
2023-04-29T02:25:03.740Z,67.70
2023-04-29T02:27:30.369Z,67.60
2023-04-29T02:41:31.146Z,67.40
2023-04-29T02:43:57.984Z,67.40
2023-04-29T02:46:24.672Z,67.50
2023-04-29T03:19:51.307Z,67.40
2023-04-29T03:22:19.088Z,67.40
2023-04-29T03:24:45.808Z,67.50
2023-04-29T04:29:34.503Z,67.50
2023-04-29T04:32:01.240Z,67.50
2023-04-29T04:34:27.949Z,67.70
2023-04-29T04:44:37.840Z,67.50
2023-04-29T04:47:05.286Z,67.40
2023-04-29T04:49:31.958Z,67.50
2023-04-29T04:59:31.083Z,67.40
2023-04-29T05:01:57.860Z,67.30
2023-04-29T05:04:24.897Z,67.40
2023-04-29T05:06:51.876Z,67.30
2023-04-29T05:09:18.506Z,67.40
2023-04-29T05:11:46.622Z,67.40
2023-04-29T05:36:33.253Z,67.40
2023-04-29T05:38:59.860Z,67.50
2023-04-29T05:41:26.825Z,67.60
2023-04-29T05:43:53.596Z,67.80
2023-04-29T05:46:20.677Z,67.70
2023-04-29T05:48:47.327Z,67.70
2023-04-29T11:08:24.128Z,62.10
2023-04-29T11:11:00.460Z,59.10
2023-04-29T11:13:29.681Z,58.20
2023-04-29T11:16:10.023Z,59.50
2023-04-29T11:18:57.481Z,60.50
2023-04-29T11:21:24.165Z,58.70
2023-04-29T11:23:52.250Z,60.50
2023-04-29T11:26:22.917Z,59.30
2023-04-29T11:28:52.107Z,59.20
2023-04-29T11:31:18.684Z,60.40
2023-04-29T11:33:47.238Z,59.40
2023-04-29T11:36:14.297Z,59.30
2023-04-29T11:38:41.894Z,58.80
2023-04-29T11:41:11.203Z,58.50
2023-04-29T11:43:39.855Z,60.20
2023-04-29T11:46:13.854Z,59.70
2023-04-29T11:48:50.726Z,59.60
2023-04-29T11:51:19.057Z,59.90
2023-04-29T11:53:46.235Z,60.50
2023-04-29T11:56:13.024Z,60.80
2023-04-29T11:58:39.909Z,59.80
2023-04-29T12:01:06.694Z,57.90
2023-04-29T12:03:34.436Z,59.50
2023-04-29T12:06:02.574Z,59.60
2023-04-29T12:08:30.194Z,59.50
2023-04-29T12:10:58.413Z,59.20
2023-04-29T12:13:28.975Z,58.10
2023-04-29T12:15:56.927Z,59.70
2023-04-29T12:18:24.167Z,60.80
2023-04-29T12:20:58.541Z,58.90
2023-04-29T12:23:28.720Z,57.30
2023-04-29T12:26:00.678Z,56.30
2023-04-29T12:28:27.684Z,55.50
2023-04-29T12:30:55.224Z,57.10
2023-04-29T12:33:27.217Z,56.50
2023-04-29T12:35:57.571Z,58.10
2023-04-29T12:38:29.855Z,57.40
2023-04-29T12:41:04.047Z,55.50
2023-04-29T12:43:32.130Z,56.10
2023-04-29T12:48:34.286Z,58.20
2023-04-29T12:51:01.972Z,57.10
2023-04-29T12:53:32.560Z,56.50
2023-04-29T12:55:59.455Z,57.60
2023-04-29T12:58:29.207Z,56.60
2023-04-29T13:08:20.421Z,61.80
2023-04-29T13:10:47.239Z,57.80
2023-04-29T13:13:13.981Z,57.50
2023-04-29T13:15:40.646Z,57.60
2023-04-29T13:18:07.572Z,57.80
2023-04-29T13:20:40.966Z,58.70
2023-04-29T13:23:09.279Z,58.60
2023-04-29T13:25:36.274Z,56.40
2023-04-29T13:28:02.991Z,57.70
2023-04-29T13:30:29.656Z,56.20
2023-04-29T13:33:00.464Z,54.80
2023-04-29T13:35:36.230Z,55.80
2023-04-29T13:38:03.096Z,56.00
2023-04-29T13:40:30.804Z,57.70
2023-04-29T13:43:05.003Z,56.10
2023-04-29T13:45:38.829Z,54.90
2023-04-29T13:48:17.053Z,54.00
2023-04-29T13:53:50.049Z,54.50
2023-04-29T13:59:19.806Z,54.80
2023-04-29T14:02:15.037Z,55.90
2023-04-29T14:04:12.607Z,54.80
2023-04-29T14:06:39.720Z,56.10
2023-04-29T14:09:07.085Z,56.40
2023-04-29T14:11:36.588Z,55.70
2023-04-29T14:14:03.616Z,57.90
2023-04-29T14:16:30.717Z,57.00
2023-04-29T14:18:57.508Z,55.70
2023-04-29T14:21:24.456Z,55.60
2023-04-29T14:23:51.367Z,53.70
2023-04-29T14:26:27.822Z,54.50
2023-04-29T14:28:59.688Z,53.20
2023-04-29T14:31:31.409Z,54.10
2023-04-29T14:33:58.791Z,54.80
2023-04-29T14:36:26.639Z,54.80
2023-04-29T14:38:53.809Z,53.40
2023-04-29T14:41:23.239Z,52.40
2023-04-29T14:43:49.967Z,52.60
2023-04-29T14:46:17.087Z,53.10
2023-04-29T14:48:43.919Z,52.50
2023-04-29T14:51:10.694Z,54.10
2023-04-29T14:53:37.358Z,54.50
2023-04-29T14:56:04.203Z,53.60
2023-04-29T14:58:31.186Z,53.40
2023-04-29T15:00:57.853Z,51.60
2023-04-29T15:03:24.894Z,53.90
2023-04-29T15:05:51.954Z,54.90
2023-04-29T15:08:19.441Z,52.80
2023-04-29T15:10:47.829Z,52.20
2023-04-29T15:13:15.070Z,54.00
2023-04-29T15:15:42.126Z,54.00
2023-04-29T15:18:09.290Z,51.90
2023-04-29T15:20:37.430Z,51.70
2023-04-29T15:23:05.544Z,51.50
2023-04-29T15:25:36.383Z,51.00
2023-04-29T15:28:04.859Z,50.80
2023-04-29T15:30:32.377Z,51.80
2023-04-29T15:32:59.224Z,51.60
2023-04-29T15:35:26.084Z,51.30
2023-04-29T15:37:52.740Z,52.50
2023-04-29T15:40:20.091Z,52.50
2023-04-29T15:42:46.962Z,51.80
2023-04-29T15:45:13.829Z,52.50
2023-04-29T15:47:40.510Z,52.90
2023-04-29T15:50:09.479Z,53.80
2023-04-29T15:52:36.810Z,54.10
2023-04-29T15:55:04.017Z,54.40
2023-04-29T15:57:30.701Z,54.10
2023-04-29T15:59:57.401Z,54.20
2023-04-29T16:02:24.091Z,54.40
2023-04-29T16:04:50.838Z,55.20
2023-04-29T16:07:18.453Z,54.70
2023-04-29T16:09:46.754Z,55.20
2023-04-29T16:12:14.207Z,56.10
2023-04-29T16:14:40.852Z,55.80
2023-04-29T16:17:07.974Z,57.00
2023-04-29T16:19:36.776Z,57.70
2023-04-29T16:22:04.582Z,58.00
2023-04-29T16:24:31.263Z,57.90
2023-04-29T16:27:12.585Z,58.60
2023-04-29T16:29:39.160Z,57.40
2023-04-29T16:32:06.274Z,57.90
2023-04-29T16:34:32.934Z,57.20
2023-04-29T16:36:59.716Z,57.90
2023-04-29T16:39:26.715Z,59.10
2023-04-29T16:41:53.289Z,58.30
2023-04-29T16:44:19.920Z,60.10
2023-04-29T16:46:46.737Z,60.00
2023-04-29T16:49:15.488Z,59.50
2023-04-29T16:51:42.080Z,59.50
2023-04-29T16:54:08.802Z,60.90
2023-04-29T16:56:35.466Z,59.60
2023-04-29T16:59:02.097Z,60.40
2023-04-29T17:01:28.783Z,60.60
2023-04-29T17:03:55.620Z,60.30
2023-04-29T17:06:23.255Z,60.40
2023-04-29T17:08:51.551Z,61.10
2023-04-29T17:11:18.612Z,60.80
2023-04-29T17:13:46.248Z,61.00
2023-04-29T17:16:14.391Z,61.20
2023-04-29T17:18:41.629Z,60.70
2023-04-29T17:21:08.871Z,61.20
2023-04-29T17:23:36.228Z,61.30
2023-04-29T17:26:04.440Z,61.20
2023-04-29T17:28:31.100Z,61.40
2023-04-29T17:31:00.899Z,62.10
2023-04-29T17:33:33.954Z,62.10
2023-04-29T17:36:06.079Z,61.30
2023-04-29T17:38:36.077Z,61.00
2023-04-29T17:41:03.533Z,61.60
2023-04-29T17:43:33.031Z,61.00
2023-04-29T17:48:26.393Z,61.30
2023-04-29T17:50:53.958Z,61.50
2023-04-29T17:53:20.765Z,61.20
2023-04-29T17:55:47.356Z,62.20
2023-04-29T17:58:13.924Z,62.10
2023-04-29T18:00:41.718Z,61.30
2023-04-29T18:03:08.586Z,61.50
2023-04-29T18:05:35.442Z,62.50
2023-04-29T18:08:02.084Z,61.40
2023-04-29T18:10:28.746Z,61.00
2023-04-29T18:12:55.420Z,61.40
2023-04-29T18:15:23.076Z,62.10
2023-04-29T18:17:49.895Z,61.80
2023-04-29T18:20:16.664Z,62.10
2023-04-29T18:22:43.365Z,61.20
2023-04-29T18:25:11.133Z,61.20
2023-04-29T18:27:37.902Z,61.10
2023-04-29T18:30:05.032Z,61.80
2023-04-29T18:32:31.809Z,61.30
2023-04-29T18:34:59.528Z,61.20
2023-04-29T18:37:26.731Z,61.80
2023-04-29T18:39:53.608Z,61.70
2023-04-29T18:42:21.094Z,61.40
2023-04-29T18:44:49.308Z,61.60
2023-04-29T18:47:16.028Z,61.40
2023-04-29T18:49:42.680Z,62.10
2023-04-29T18:52:09.356Z,61.60
2023-04-29T18:54:36.132Z,62.00
2023-04-29T18:57:03.784Z,61.70
2023-04-29T18:59:30.522Z,61.70
2023-04-29T19:01:57.225Z,61.70
2023-04-29T19:04:23.981Z,62.20
2023-04-29T19:06:50.681Z,61.90
2023-04-29T19:09:17.296Z,62.00
2023-04-29T19:11:44.255Z,62.20
2023-04-29T19:14:10.963Z,62.20
2023-04-29T19:16:38.227Z,62.10
2023-04-29T19:19:04.971Z,62.20
2023-04-29T19:21:33.283Z,61.90
2023-04-29T19:24:00.238Z,61.80
2023-04-29T19:26:26.994Z,62.50
2023-04-29T19:28:53.568Z,62.30
2023-04-29T19:31:20.630Z,62.20
2023-04-29T19:33:47.985Z,63.30
2023-04-29T19:36:14.700Z,62.90
2023-04-29T19:38:41.408Z,63.10
2023-04-29T19:41:08.390Z,62.80
2023-04-29T19:43:35.203Z,63.30
2023-04-29T19:46:01.959Z,63.60
2023-04-29T19:48:28.585Z,63.30
2023-04-29T19:50:55.317Z,63.70
2023-04-29T19:53:21.950Z,63.80
2023-04-29T19:55:50.564Z,63.80
2023-04-29T19:58:18.294Z,63.70
2023-04-29T20:00:45.149Z,63.80
2023-04-29T20:03:12.632Z,63.70
2023-04-29T20:05:40.124Z,63.80
2023-04-29T20:08:07.224Z,63.60
2023-04-29T20:10:34.008Z,63.90
2023-04-29T20:13:00.978Z,63.90
2023-04-29T20:15:27.637Z,63.70
2023-04-29T20:17:54.583Z,64.20
2023-04-29T20:20:21.299Z,64.40
2023-04-29T20:22:47.986Z,63.90
2023-04-29T20:25:14.647Z,64.30
2023-04-29T20:27:41.506Z,64.30
2023-04-29T20:30:11.647Z,64.00
2023-04-29T20:32:38.657Z,64.20
2023-04-29T20:35:05.809Z,64.00
2023-04-29T20:37:32.641Z,63.80
2023-04-29T20:39:59.711Z,63.80
2023-04-29T20:42:26.951Z,63.90
2023-04-29T20:44:53.527Z,63.90
2023-04-29T20:47:20.626Z,64.20
2023-04-29T20:49:47.315Z,64.30
2023-04-29T20:52:13.966Z,64.20
2023-04-29T20:54:40.595Z,64.50
2023-04-29T20:57:07.282Z,64.50
2023-04-29T20:59:34.042Z,64.50
2023-04-29T21:02:00.762Z,64.70
2023-04-29T21:04:27.524Z,64.60
2023-04-29T21:06:54.236Z,64.80
2023-04-29T21:09:21.549Z,64.70
2023-04-29T21:11:48.459Z,65.10
2023-04-29T21:14:15.267Z,65.00
2023-04-29T21:16:42.742Z,65.00
2023-04-29T21:19:09.545Z,65.00
2023-04-29T21:21:36.163Z,64.90
2023-04-29T21:24:02.974Z,64.90
2023-04-29T21:26:29.694Z,65.10
2023-04-29T21:28:56.514Z,65.10
2023-04-29T21:31:23.219Z,65.20
2023-04-29T21:33:49.943Z,65.20
2023-04-29T21:36:16.625Z,65.10
2023-04-29T21:38:43.232Z,65.10
2023-04-29T21:41:29.817Z,65.20
2023-04-29T21:44:01.222Z,65.30
2023-04-29T21:46:28.970Z,65.00
2023-04-29T21:48:57.520Z,65.10
2023-04-29T21:51:24.473Z,65.20
2023-04-29T21:53:51.434Z,65.20
2023-04-29T21:56:18.708Z,65.30
2023-04-29T21:58:45.962Z,65.30
2023-04-29T22:01:26.652Z,65.30
2023-04-29T22:03:55.183Z,65.20
2023-04-29T22:06:22.214Z,65.30
2023-04-29T22:08:48.948Z,65.30
2023-04-29T22:11:15.956Z,65.40
2023-04-29T22:13:42.648Z,65.40
2023-04-29T22:16:09.344Z,65.40
2023-04-29T22:18:35.989Z,65.40
2023-04-29T22:21:02.671Z,65.40
2023-04-29T22:23:29.334Z,65.50
2023-04-29T22:25:56.199Z,65.40
2023-04-29T22:28:23.340Z,65.30
2023-04-29T22:30:49.987Z,65.30
2023-04-29T22:33:16.734Z,65.30
2023-04-29T22:35:43.452Z,65.30
2023-04-29T22:38:10.373Z,65.30
2023-04-29T22:40:38.080Z,65.40
2023-04-29T22:43:04.808Z,65.40
2023-04-29T22:45:32.034Z,65.40
2023-04-29T22:47:58.686Z,65.40
2023-04-29T22:50:25.563Z,65.50
2023-04-29T22:52:52.197Z,65.50
2023-04-29T22:55:18.979Z,65.40
2023-04-29T22:57:45.784Z,65.40
2023-04-29T23:00:13.163Z,65.40
2023-04-29T23:02:40.618Z,65.50
2023-04-29T23:05:08.419Z,65.50
2023-04-29T23:07:35.681Z,65.60
2023-04-29T23:10:02.502Z,65.60
2023-04-29T23:12:30.427Z,65.60
2023-04-29T23:14:57.162Z,65.60
2023-04-29T23:17:24.069Z,65.50
2023-04-29T23:19:51.108Z,65.50
2023-04-29T23:22:17.928Z,65.50
2023-04-29T23:24:44.839Z,65.50
2023-04-29T23:27:11.581Z,65.50
2023-04-29T23:29:39.014Z,65.60
2023-04-29T23:32:05.869Z,65.50
2023-04-29T23:34:32.432Z,65.50
2023-04-29T23:37:01.303Z,65.50
2023-04-29T23:39:28.057Z,65.50
2023-04-29T23:41:54.723Z,65.50
2023-04-29T23:44:21.455Z,65.50
2023-04-29T23:46:48.156Z,65.50
2023-04-29T23:49:14.846Z,65.60
2023-04-29T23:51:41.523Z,65.50
2023-04-29T23:54:08.187Z,65.60
2023-04-29T23:56:34.830Z,65.50
2023-04-29T23:59:01.463Z,65.50
